createdAt,value
2019-03-18T00:01:35.605Z,100090.48
2019-03-18T00:04:08.395Z,100093.52
2019-03-18T00:06:41.189Z,100095.27
2019-03-18T00:09:14.012Z,100107.08
2019-03-18T00:11:46.854Z,100110.55
2019-03-18T00:14:19.635Z,100111.42
2019-03-18T00:16:52.479Z,100112.70
2019-03-18T00:19:25.439Z,100102.25
2019-03-18T00:21:58.333Z,100093.94
2019-03-18T00:24:31.119Z,100107.47
2019-03-18T00:27:04.179Z,100115.28
2019-03-18T00:29:36.949Z,100125.77
2019-03-18T00:32:09.840Z,100125.72
2019-03-18T00:34:42.652Z,100119.63
2019-03-18T00:37:15.447Z,100119.58
2019-03-18T00:39:49.284Z,100128.29
2019-03-18T00:42:22.090Z,100128.34
2019-03-18T00:44:54.863Z,100134.03
2019-03-18T00:47:27.742Z,100142.28
2019-03-18T00:50:00.568Z,100132.18
2019-03-18T00:52:33.528Z,100136.53
2019-03-18T00:55:06.725Z,100148.33
2019-03-18T00:57:39.674Z,100142.13
2019-03-18T01:00:12.657Z,100148.23
2019-03-18T01:02:49.238Z,100150.83
2019-03-18T01:05:21.057Z,100148.64
2019-03-18T01:07:54.377Z,100144.31
2019-03-18T01:10:27.083Z,100154.75
2019-03-18T01:12:59.875Z,100158.66
2019-03-18T01:15:32.675Z,100150.38
2019-03-18T01:18:05.642Z,100151.69
2019-03-18T01:20:38.406Z,100157.33
2019-03-18T01:23:11.345Z,100149.93
2019-03-18T01:25:44.091Z,100149.86
2019-03-18T01:28:16.955Z,100142.46
2019-03-18T01:30:49.738Z,100148.63
2019-03-18T01:33:22.494Z,100144.25
2019-03-18T01:35:56.349Z,100144.72
2019-03-18T01:38:29.129Z,100144.27
2019-03-18T01:41:01.992Z,100140.79
2019-03-18T01:43:35.906Z,100151.23
2019-03-18T01:46:08.646Z,100153.38
2019-03-18T01:48:43.176Z,100151.19
2019-03-18T01:51:16.054Z,100153.36
2019-03-18T01:53:48.811Z,100149.41
2019-03-18T01:56:21.565Z,100151.58
2019-03-18T01:58:54.285Z,100144.56
2019-03-18T02:01:27.004Z,100152.83
2019-03-18T02:03:59.717Z,100161.09
2019-03-18T02:06:33.592Z,100158.45
2019-03-18T02:09:08.258Z,100159.31
2019-03-18T02:11:41.158Z,100159.74
2019-03-18T02:14:14.013Z,100161.48
2019-03-18T02:16:46.748Z,100162.33
2019-03-18T02:19:19.541Z,100170.16
2019-03-18T02:21:52.324Z,100181.05
2019-03-18T02:24:25.088Z,100175.37
2019-03-18T02:26:57.861Z,100186.25
2019-03-18T02:29:30.642Z,100179.29
2019-03-18T02:32:03.377Z,100186.25
2019-03-18T02:34:36.109Z,100191.06
2019-03-18T02:37:08.943Z,100184.49
2019-03-18T02:39:41.613Z,100189.73
2019-03-18T02:42:14.465Z,100178.81
2019-03-18T02:44:47.181Z,100181.80
2019-03-18T02:47:19.895Z,100175.28
2019-03-18T02:49:52.612Z,100179.59
2019-03-18T02:52:25.493Z,100181.27
2019-03-18T02:54:58.311Z,100188.69
2019-03-18T02:57:31.052Z,100179.96
2019-03-18T03:00:07.373Z,100188.66
2019-03-18T03:02:40.236Z,100188.23
2019-03-18T03:05:14.561Z,100195.20
2019-03-18T03:07:48.378Z,100195.17
2019-03-18T03:10:21.125Z,100200.83
2019-03-18T03:12:53.931Z,100196.00
2019-03-18T03:15:26.829Z,100185.11
2019-03-18T03:17:59.577Z,100202.94
2019-03-18T03:20:32.343Z,100201.58
2019-03-18T03:23:05.091Z,100206.74
2019-03-18T03:25:37.807Z,100215.81
2019-03-18T03:28:10.506Z,100217.84
2019-03-18T03:30:43.244Z,100224.75
2019-03-18T03:33:15.986Z,100233.77
2019-03-18T03:35:48.712Z,100235.47
2019-03-18T03:38:21.489Z,100234.20
2019-03-18T03:40:54.283Z,100237.17
2019-03-18T03:43:27.012Z,100249.33
2019-03-18T03:45:59.722Z,100258.02
2019-03-18T03:48:32.668Z,100244.56
2019-03-18T03:51:05.404Z,100237.98
2019-03-18T03:53:38.128Z,100241.45
2019-03-18T03:56:10.897Z,100241.88
2019-03-18T03:58:43.759Z,100249.30
2019-03-18T04:01:16.561Z,100261.51
2019-03-18T04:03:49.361Z,100264.09
2019-03-18T04:06:22.391Z,100263.20
2019-03-18T04:08:55.234Z,100266.21
2019-03-18T04:11:27.985Z,100267.02
2019-03-18T04:14:00.756Z,100273.52
2019-03-18T04:16:33.591Z,100273.49
2019-03-18T04:19:06.350Z,100268.30
2019-03-18T04:21:39.559Z,100271.20
2019-03-18T04:24:12.291Z,100274.16
2019-03-18T04:26:45.063Z,100274.98
2019-03-18T04:29:17.826Z,100274.48
2019-03-18T04:31:50.827Z,100280.52
2019-03-18T04:34:24.613Z,100287.43
2019-03-18T04:36:57.369Z,100294.31
2019-03-18T04:39:30.209Z,100296.46
2019-03-18T04:42:03.879Z,100303.88
2019-03-18T04:44:36.755Z,100303.38
2019-03-18T04:47:14.400Z,100307.33
2019-03-18T04:49:43.909Z,100309.41
2019-03-18T04:52:16.809Z,100314.05
2019-03-18T04:54:49.646Z,100310.94
2019-03-18T04:57:22.494Z,100302.22
2019-03-18T04:59:55.199Z,100300.00
2019-03-18T05:02:27.944Z,100306.14
2019-03-18T05:05:00.729Z,100296.16
2019-03-18T05:07:33.599Z,100297.00
2019-03-18T05:10:06.755Z,100304.45
2019-03-18T05:12:39.562Z,100301.03
2019-03-18T05:15:12.374Z,100295.84
2019-03-18T05:17:45.227Z,100306.79
2019-03-18T05:20:18.015Z,100306.37
2019-03-18T05:22:50.744Z,100312.44
2019-03-18T05:25:23.441Z,100306.75
2019-03-18T05:27:56.169Z,100299.73
2019-03-18T05:30:28.874Z,100312.59
2019-03-18T05:33:01.789Z,100310.94
2019-03-18T05:35:34.631Z,100314.47
2019-03-18T05:38:07.375Z,100326.22
2019-03-18T05:40:40.225Z,100335.27
2019-03-18T05:43:12.946Z,100330.33
2019-03-18T05:45:45.649Z,100328.28
2019-03-18T05:48:18.434Z,100329.69
2019-03-18T05:50:51.163Z,100340.34
2019-03-18T05:53:23.940Z,100342.60
2019-03-18T05:56:01.946Z,100343.52
2019-03-18T05:58:35.505Z,100346.36
2019-03-18T06:01:08.301Z,100352.14
2019-03-18T06:03:42.075Z,100353.57
2019-03-18T06:06:14.825Z,100352.84
2019-03-18T06:08:47.599Z,100355.95
2019-03-18T06:11:20.439Z,100363.39
2019-03-18T06:13:53.209Z,100370.51
2019-03-18T06:16:26.977Z,100373.22
2019-03-18T06:19:00.374Z,100371.91
2019-03-18T06:21:33.392Z,100374.12
2019-03-18T06:24:06.645Z,100373.75
2019-03-18T06:26:39.641Z,100376.01
2019-03-18T06:29:12.434Z,100386.59
2019-03-18T06:31:45.337Z,100380.95
2019-03-18T06:34:18.078Z,100373.17
2019-03-18T06:36:50.843Z,100376.28
2019-03-18T06:39:23.539Z,100375.58
2019-03-18T06:41:56.391Z,100376.35
2019-03-18T06:44:29.134Z,100378.20
2019-03-18T06:47:01.982Z,100387.28
2019-03-18T06:49:34.820Z,100389.07
2019-03-18T06:52:07.698Z,100387.41
2019-03-18T06:54:40.606Z,100380.91
2019-03-18T06:57:13.328Z,100377.98
2019-03-18T06:59:46.078Z,100381.12
2019-03-18T07:02:19.085Z,100395.16
2019-03-18T07:04:51.993Z,100389.98
2019-03-18T07:07:24.710Z,100389.50
2019-03-18T07:09:57.501Z,100397.47
2019-03-18T07:12:30.235Z,100412.77
2019-03-18T07:15:03.041Z,100414.98
2019-03-18T07:17:35.786Z,100406.22
2019-03-18T07:20:10.002Z,100408.38
2019-03-18T07:22:42.815Z,100408.78
2019-03-18T07:25:15.555Z,100405.72
2019-03-18T07:27:48.500Z,100414.52
2019-03-18T07:30:55.238Z,100415.48
2019-03-18T07:33:29.686Z,100411.92
2019-03-18T07:36:02.970Z,100417.13
2019-03-18T07:38:35.822Z,100412.27
2019-03-18T07:41:08.536Z,100415.83
2019-03-18T07:43:41.247Z,100416.35
2019-03-18T07:46:14.066Z,100431.58
2019-03-18T07:48:46.803Z,100439.78
2019-03-18T07:51:19.645Z,100441.37
2019-03-18T07:53:52.492Z,100448.11
2019-03-18T07:56:25.331Z,100451.04
2019-03-18T07:58:58.061Z,100450.92
2019-03-18T08:01:30.735Z,100449.56
2019-03-18T08:04:03.716Z,100449.62
2019-03-18T08:06:36.636Z,100452.29
2019-03-18T08:09:10.742Z,100441.88
2019-03-18T08:11:43.575Z,100445.97
2019-03-18T08:14:16.489Z,100442.01
2019-03-18T08:16:49.289Z,100452.12
2019-03-18T08:19:22.386Z,100447.39
2019-03-18T08:21:55.345Z,100457.55
2019-03-18T08:24:28.242Z,100458.34
2019-03-18T08:27:01.008Z,100470.91
2019-03-18T08:29:33.927Z,100471.55
2019-03-18T08:32:06.810Z,100483.55
2019-03-18T08:34:39.559Z,100480.34
2019-03-18T08:37:12.448Z,100470.34
2019-03-18T08:39:46.197Z,100468.16
2019-03-18T08:42:18.972Z,100474.63
2019-03-18T08:44:51.814Z,100472.03
2019-03-18T08:47:24.593Z,100481.20
2019-03-18T08:49:57.377Z,100472.45
2019-03-18T08:52:30.108Z,100467.92
2019-03-18T08:55:03.125Z,100473.85
2019-03-18T08:57:36.050Z,100472.92
2019-03-18T09:00:10.723Z,100469.41
2019-03-18T09:02:43.588Z,100477.27
2019-03-18T09:05:16.338Z,100492.68
2019-03-18T09:07:49.143Z,100482.73
2019-03-18T09:10:21.917Z,100496.14
2019-03-18T09:12:54.792Z,100496.40
2019-03-18T09:15:27.583Z,100504.94
2019-03-18T09:18:00.497Z,100503.92
2019-03-18T09:20:33.256Z,100509.05
2019-03-18T09:23:06.105Z,100510.77
2019-03-18T09:25:39.007Z,100502.83
2019-03-18T09:28:11.711Z,100513.67
2019-03-18T09:30:44.478Z,100523.64
2019-03-18T09:33:17.355Z,100518.40
2019-03-18T09:35:50.077Z,100515.89
2019-03-18T09:38:22.853Z,100508.15
2019-03-18T09:40:55.586Z,100515.69
2019-03-18T09:43:28.367Z,100516.76
2019-03-18T09:46:01.166Z,100513.52
2019-03-18T09:48:33.949Z,100530.94
2019-03-18T09:51:09.567Z,100527.79
2019-03-18T09:53:41.504Z,100529.61
2019-03-18T09:56:14.731Z,100525.14
2019-03-18T09:58:47.515Z,100529.08
2019-03-18T10:01:21.456Z,100522.08
2019-03-18T10:03:54.307Z,100523.11
2019-03-18T10:06:27.044Z,100527.98
2019-03-18T10:09:00.022Z,100536.73
2019-03-18T10:11:32.959Z,100536.47
2019-03-18T10:14:06.021Z,100533.59
2019-03-18T10:16:38.812Z,100533.77
2019-03-18T10:19:11.606Z,100536.72
2019-03-18T10:21:44.372Z,100545.65
2019-03-18T10:24:18.014Z,100549.41
2019-03-18T10:26:50.995Z,100557.95
2019-03-18T10:29:23.748Z,100549.13
2019-03-18T10:31:56.429Z,100560.93
2019-03-18T10:34:29.522Z,100561.29
2019-03-18T10:37:02.229Z,100561.96
2019-03-18T10:39:35.258Z,100557.90
2019-03-18T10:42:08.041Z,100573.99
2019-03-18T10:44:41.011Z,100569.15
2019-03-18T10:47:14.111Z,100573.02
2019-03-18T10:49:47.029Z,100573.45
2019-03-18T10:52:22.323Z,100585.77
2019-03-18T10:54:55.333Z,100593.70
2019-03-18T10:57:28.128Z,100580.34
2019-03-18T11:00:01.586Z,100575.33
2019-03-18T11:02:35.599Z,100580.68
2019-03-18T11:05:08.868Z,100583.75
2019-03-18T11:07:41.560Z,100578.06
2019-03-18T11:10:14.505Z,100580.66
2019-03-18T11:12:47.287Z,100580.39
2019-03-18T11:15:20.195Z,100587.09
2019-03-18T11:17:52.856Z,100579.78
2019-03-18T11:20:25.731Z,100582.01
2019-03-18T11:22:58.442Z,100574.94
2019-03-18T11:25:31.248Z,100569.61
2019-03-18T11:28:03.979Z,100577.02
2019-03-18T11:30:36.969Z,100571.39
2019-03-18T11:33:09.669Z,100577.72
2019-03-18T11:35:42.481Z,100573.73
2019-03-18T11:38:16.359Z,100575.45
2019-03-18T11:40:49.228Z,100571.22
2019-03-18T11:43:21.992Z,100572.05
2019-03-18T11:45:56.636Z,100582.87
2019-03-18T11:48:29.425Z,100565.23
2019-03-18T11:51:02.450Z,100586.59
2019-03-18T11:53:35.272Z,100585.45
2019-03-18T11:56:07.991Z,100578.03
2019-03-18T11:58:40.883Z,100575.27
2019-03-18T12:01:13.940Z,100586.52
2019-03-18T12:03:46.735Z,100588.34
2019-03-18T12:06:21.633Z,100580.94
2019-03-18T12:08:54.421Z,100578.72
2019-03-18T12:11:27.419Z,100588.36
2019-03-18T12:14:00.210Z,100584.27
2019-03-18T12:16:33.050Z,100585.11
2019-03-18T12:19:05.851Z,100586.32
2019-03-18T12:21:38.687Z,100585.82
2019-03-18T12:24:11.496Z,100587.95
2019-03-18T12:26:44.330Z,100584.41
2019-03-18T12:29:17.051Z,100586.15
2019-03-18T12:31:49.903Z,100596.58
2019-03-18T12:34:23.020Z,100588.66
2019-03-18T12:36:56.158Z,100593.18
2019-03-18T12:39:29.072Z,100595.05
2019-03-18T12:42:02.287Z,100596.83
2019-03-18T12:44:36.232Z,100592.07
2019-03-18T12:47:09.047Z,100594.33
2019-03-18T12:49:41.894Z,100598.73
2019-03-18T12:52:14.717Z,100596.98
2019-03-18T12:54:47.471Z,100599.23
2019-03-18T12:57:22.724Z,100588.15
2019-03-18T12:59:55.765Z,100593.67
2019-03-18T13:02:28.632Z,100583.75
2019-03-18T13:05:01.588Z,100580.19
2019-03-18T13:07:34.516Z,100585.87
2019-03-18T13:10:11.731Z,100589.72
2019-03-18T13:12:44.530Z,100594.92
2019-03-18T13:15:18.062Z,100594.30
2019-03-18T13:17:50.894Z,100600.84
2019-03-18T13:20:23.742Z,100605.66
2019-03-18T13:22:56.531Z,100603.80
2019-03-18T13:25:29.292Z,100598.91
2019-03-18T13:28:02.118Z,100608.92
2019-03-18T13:30:34.921Z,100606.23
2019-03-18T13:33:07.857Z,100612.72
2019-03-18T13:35:43.021Z,100608.21
2019-03-18T13:38:15.169Z,100611.72
2019-03-18T13:40:48.047Z,100611.66
2019-03-18T13:43:21.009Z,100612.52
2019-03-18T13:45:55.866Z,100611.23
2019-03-18T13:48:29.109Z,100611.61
2019-03-18T13:51:01.965Z,100627.80
2019-03-18T13:53:34.880Z,100610.28
2019-03-18T13:56:07.754Z,100624.30
2019-03-18T13:58:40.484Z,100621.72
2019-03-18T14:01:13.224Z,100622.20
2019-03-18T14:03:46.075Z,100623.91
2019-03-18T14:06:18.940Z,100628.68
2019-03-18T14:08:51.810Z,100626.49
2019-03-18T14:11:24.658Z,100629.12
2019-03-18T14:13:58.098Z,100635.70
2019-03-18T14:16:30.831Z,100640.92
2019-03-18T14:19:03.677Z,100633.48
2019-03-18T14:21:37.462Z,100640.05
2019-03-18T14:24:10.242Z,100636.59
2019-03-18T14:26:42.952Z,100642.80
2019-03-18T14:29:15.731Z,100640.19
2019-03-18T14:31:48.611Z,100630.19
2019-03-18T14:34:21.424Z,100638.06
2019-03-18T14:36:54.186Z,100628.77
2019-03-18T14:39:27.015Z,100637.48
2019-03-18T14:41:59.740Z,100635.24
2019-03-18T14:44:32.698Z,100628.29
2019-03-18T14:47:05.491Z,100629.67
2019-03-18T14:49:38.349Z,100626.63
2019-03-18T14:52:11.331Z,100630.16
2019-03-18T14:54:44.138Z,100631.06
2019-03-18T14:57:16.967Z,100635.48
2019-03-18T14:59:49.746Z,100627.62
2019-03-18T15:02:22.550Z,100628.98
2019-03-18T15:04:55.390Z,100633.36
2019-03-18T15:07:28.215Z,100632.48
2019-03-18T15:10:01.023Z,100630.82
2019-03-18T15:12:33.759Z,100626.93
2019-03-18T15:15:08.691Z,100625.13
2019-03-18T15:17:41.551Z,100628.53
2019-03-18T15:20:14.520Z,100613.60
2019-03-18T15:22:47.420Z,100614.91
2019-03-18T15:25:22.002Z,100625.47
2019-03-18T15:27:54.771Z,100626.87
2019-03-18T15:30:27.611Z,100639.23
2019-03-18T15:33:00.866Z,100634.02
2019-03-18T15:35:33.791Z,100633.16
2019-03-18T15:38:06.696Z,100647.63
2019-03-18T15:40:39.559Z,100644.59
2019-03-18T15:43:12.811Z,100649.47
2019-03-18T15:45:45.744Z,100643.80
2019-03-18T15:48:18.630Z,100637.64
2019-03-18T15:50:51.441Z,100652.09
2019-03-18T15:53:24.228Z,100645.91
2019-03-18T15:55:57.242Z,100647.98
2019-03-18T15:58:30.102Z,100651.00
2019-03-18T16:01:02.983Z,100652.27
2019-03-18T16:03:36.314Z,100649.99
2019-03-18T16:06:09.258Z,100650.36
2019-03-18T16:08:42.073Z,100652.40
2019-03-18T16:11:17.139Z,100662.81
2019-03-18T16:13:49.848Z,100664.02
2019-03-18T16:16:22.868Z,100668.79
2019-03-18T16:18:55.688Z,100674.77
2019-03-18T16:21:30.546Z,100674.27
2019-03-18T16:24:03.369Z,100674.20
2019-03-18T16:26:36.575Z,100680.80
2019-03-18T16:29:10.981Z,100684.25
2019-03-18T16:31:44.042Z,100691.22
2019-03-18T16:34:16.998Z,100692.05
2019-03-18T16:36:55.527Z,100690.28
2019-03-18T16:39:31.569Z,100694.61
2019-03-18T16:42:04.505Z,100687.57
2019-03-18T16:44:37.440Z,100689.37
2019-03-18T16:47:11.788Z,100698.15
2019-03-18T16:49:44.594Z,100698.60
2019-03-18T16:52:17.296Z,100705.16
2019-03-18T16:54:50.143Z,100721.82
2019-03-18T16:57:22.956Z,100724.42
2019-03-18T16:59:55.784Z,100722.64
2019-03-18T17:02:28.667Z,100730.52
2019-03-18T17:05:01.488Z,100730.52
2019-03-18T17:07:34.393Z,100731.41
2019-03-18T17:10:07.633Z,100731.41
2019-03-18T17:12:40.455Z,100732.20
2019-03-18T17:15:13.518Z,100735.25
2019-03-18T17:17:46.517Z,100739.16
2019-03-18T17:20:19.364Z,100738.65
2019-03-18T17:22:52.234Z,100735.94
2019-03-18T17:25:25.234Z,100752.01
2019-03-18T17:27:58.141Z,100757.59
2019-03-18T17:30:31.203Z,100756.52
2019-03-18T17:33:04.224Z,100766.38
2019-03-18T17:35:37.080Z,100777.13
2019-03-18T17:38:09.985Z,100784.52
2019-03-18T17:40:43.321Z,100786.08
2019-03-18T17:43:16.362Z,100787.25
2019-03-18T17:45:49.532Z,100792.91
2019-03-18T17:48:22.538Z,100790.18
2019-03-18T17:50:55.514Z,100795.84
2019-03-18T17:53:28.432Z,100797.54
2019-03-18T17:56:01.340Z,100811.03
2019-03-18T17:58:34.228Z,100806.64
2019-03-18T18:01:07.112Z,100805.28
2019-03-18T18:03:43.255Z,100810.06
2019-03-18T18:06:16.207Z,100804.78
2019-03-18T18:08:49.097Z,100809.48
2019-03-18T18:11:22.680Z,100807.25
2019-03-18T18:13:55.494Z,100820.77
2019-03-18T18:16:28.414Z,100813.72
2019-03-18T18:19:02.386Z,100817.61
2019-03-18T18:21:35.245Z,100806.20
2019-03-18T18:24:07.953Z,100813.98
2019-03-18T18:26:40.870Z,100816.09
2019-03-18T18:29:13.759Z,100826.06
2019-03-18T18:31:46.612Z,100822.77
2019-03-18T18:34:19.375Z,100835.77
2019-03-18T18:36:52.251Z,100828.17
2019-03-18T18:39:25.126Z,100832.94
2019-03-18T18:41:57.974Z,100831.50
2019-03-18T18:44:30.756Z,100838.45
2019-03-18T18:47:03.740Z,100840.52
2019-03-18T18:49:36.587Z,100835.58
2019-03-18T18:52:09.513Z,100844.73
2019-03-18T18:54:42.263Z,100849.45
2019-03-18T18:57:15.142Z,100849.88
2019-03-18T18:59:48.054Z,100846.41
2019-03-18T19:02:20.906Z,100852.53
2019-03-18T19:04:53.657Z,100855.15
2019-03-18T19:07:26.537Z,100859.92
2019-03-18T19:09:59.447Z,100868.94
2019-03-18T19:12:32.435Z,100869.31
2019-03-18T19:15:06.697Z,100866.59
2019-03-18T19:17:39.770Z,100869.25
2019-03-18T19:20:13.142Z,100861.88
2019-03-18T19:22:47.541Z,100870.98
2019-03-18T19:25:20.572Z,100872.20
2019-03-18T19:27:53.416Z,100870.47
2019-03-18T19:30:26.210Z,100863.41
2019-03-18T19:32:59.093Z,100875.56
2019-03-18T19:35:32.089Z,100879.47
2019-03-18T19:38:04.938Z,100883.55
2019-03-18T19:40:37.905Z,100883.59
2019-03-18T19:43:10.966Z,100889.35
2019-03-18T19:45:44.153Z,100899.86
2019-03-18T19:48:17.190Z,100900.70
2019-03-18T19:50:49.954Z,100909.38
2019-03-18T19:53:22.830Z,100918.53
2019-03-18T19:55:55.749Z,100925.08
2019-03-18T19:58:30.126Z,100925.55
2019-03-18T20:01:08.139Z,100933.83
2019-03-18T20:03:41.140Z,100937.27
2019-03-18T20:06:13.952Z,100936.85
2019-03-18T20:08:46.839Z,100934.03
2019-03-18T20:11:19.951Z,100942.40
2019-03-18T20:13:52.675Z,100946.75
2019-03-18T20:16:25.536Z,100943.70
2019-03-18T20:18:59.521Z,100951.50
2019-03-18T20:21:32.814Z,100961.86
2019-03-18T20:24:05.857Z,100967.94
2019-03-18T20:26:38.661Z,100970.55
2019-03-18T20:29:11.547Z,100970.55
2019-03-18T20:31:44.276Z,100972.75
2019-03-18T20:34:17.290Z,100977.55
2019-03-18T20:36:50.123Z,100981.91
2019-03-18T20:39:23.087Z,100981.84
2019-03-18T20:41:55.971Z,100979.70
2019-03-18T20:44:28.863Z,100979.96
2019-03-18T20:47:01.926Z,100980.84
2019-03-18T20:49:34.876Z,100985.23
2019-03-18T20:52:16.292Z,100985.66
2019-03-18T20:54:42.488Z,100990.48
2019-03-18T20:57:15.417Z,100988.27
2019-03-18T20:59:49.280Z,100992.63
2019-03-18T21:02:22.193Z,101003.03
2019-03-18T21:04:57.861Z,101006.95
2019-03-18T21:07:30.748Z,101008.21
2019-03-18T21:10:03.571Z,101009.10
2019-03-18T21:12:36.461Z,101008.21
2019-03-18T21:15:09.786Z,101011.60
2019-03-18T21:17:42.724Z,101015.01
2019-03-18T21:20:16.797Z,101012.71
2019-03-18T21:22:49.610Z,101020.45
2019-03-18T21:25:22.421Z,101029.91
2019-03-18T21:27:55.304Z,101028.48
2019-03-18T21:30:28.185Z,101036.64
2019-03-18T21:33:01.033Z,101025.17
2019-03-18T21:35:33.958Z,101031.64
2019-03-18T21:38:06.888Z,101026.36
2019-03-18T21:40:40.335Z,101028.86
2019-03-18T21:43:13.233Z,101025.35
2019-03-18T21:45:46.182Z,101031.73
2019-03-18T21:48:18.964Z,101029.87
2019-03-18T21:50:51.793Z,101032.84
2019-03-18T21:53:27.692Z,101033.97
2019-03-18T21:56:00.460Z,101042.17
2019-03-18T21:58:33.351Z,101039.80
2019-03-18T22:01:06.220Z,101044.47
2019-03-18T22:03:39.053Z,101055.93
2019-03-18T22:06:11.837Z,101055.27
2019-03-18T22:08:44.987Z,101059.05
2019-03-18T22:11:17.734Z,101058.45
2019-03-18T22:13:51.347Z,101049.67
2019-03-18T22:16:24.237Z,101055.84
2019-03-18T22:18:58.280Z,101058.94
2019-03-18T22:21:31.141Z,101061.95
2019-03-18T22:24:04.445Z,101058.58
2019-03-18T22:26:37.139Z,101060.78
2019-03-18T22:29:09.846Z,101063.86
2019-03-18T22:31:42.676Z,101070.80
2019-03-18T22:34:15.407Z,101075.91
2019-03-18T22:36:48.185Z,101080.17
2019-03-18T22:39:20.950Z,101077.97
2019-03-18T22:41:53.677Z,101083.67
2019-03-18T22:44:26.352Z,101085.17
2019-03-18T22:46:59.067Z,101089.75
2019-03-18T22:49:31.896Z,101083.88
2019-03-18T22:52:04.669Z,101094.05
2019-03-18T22:54:37.509Z,101091.04
2019-03-18T22:57:10.466Z,101100.19
2019-03-18T22:59:43.145Z,101102.80
2019-03-18T23:02:16.012Z,101106.35
2019-03-18T23:04:48.757Z,101098.52
2019-03-18T23:07:21.517Z,101104.98
2019-03-18T23:09:54.199Z,101103.97
2019-03-18T23:12:27.035Z,101104.72
2019-03-18T23:14:59.753Z,101095.91
2019-03-18T23:17:32.625Z,101103.14
2019-03-18T23:20:06.177Z,101101.16
2019-03-18T23:22:38.949Z,101100.08
2019-03-18T23:25:11.764Z,101105.42
2019-03-18T23:27:44.525Z,101130.91
2019-03-18T23:30:17.524Z,101130.64
2019-03-18T23:32:51.129Z,101134.34
2019-03-18T23:35:23.870Z,101137.69
2019-03-18T23:37:56.759Z,101141.84
2019-03-18T23:40:29.586Z,101143.40
2019-03-18T23:43:02.345Z,101145.86
2019-03-18T23:45:35.190Z,101148.34
2019-03-18T23:48:07.945Z,101150.44
2019-03-18T23:50:40.732Z,101151.75
2019-03-18T23:53:13.628Z,101154.20
2019-03-18T23:55:46.410Z,101156.62
2019-03-18T23:58:19.264Z,101155.57
